Time;durP1;ratioP1;P1;durP2;ratioP2;P2;SDS_P1;SDS_P2;PMS_P1;PMS_P2;Temp;Humidity;BMP_temperature;BMP_pressure;BME280_temperature;BME280_humidity;BME280_pressure;Samples;Min_cycle;Max_cycle;Signal;HPM_P1;HPM_P2
2022/05/22 00:01:29;;;;;;;109.10;63.15;;;;;;;;;;5076273;28;20028;-47
2022/05/22 00:03:55;;;;;;;98.35;57.00;;;;;;;;;;5076037;28;20024;-48
2022/05/22 00:06:21;;;;;;;97.05;55.33;;;;;;;;;;5076041;28;20025;-48
2022/05/22 00:08:47;;;;;;;91.03;52.90;;;;;;;;;;5075874;28;20063;-48
2022/05/22 00:11:13;;;;;;;54.60;33.42;;;;;;;;;;5075831;28;20474;-48
2022/05/22 00:13:42;;;;;;;36.53;20.75;;;;;;;;;;5076150;28;20074;-48
2022/05/22 00:18:52;;;;;;;35.45;22.88;;;;;;;;;;5056417;28;20110;-47
2022/05/22 00:21:18;;;;;;;22.83;17.65;;;;;;;;;;5055682;28;20021;-50
2022/05/22 00:23:45;;;;;;;15.48;10.90;;;;;;;;;;5055841;28;20067;-50
2022/05/22 00:26:11;;;;;;;6.28;5.18;;;;;;;;;;5055977;28;20053;-50
2022/05/22 00:28:37;;;;;;;10.75;5.20;;;;;;;;;;5055733;28;20043;-49
2022/05/22 00:31:03;;;;;;;9.05;4.80;;;;;;;;;;5055684;28;20104;-49
2022/05/22 00:33:29;;;;;;;9.98;4.28;;;;;;;;;;5055826;28;20775;-49
2022/05/22 00:35:56;;;;;;;9.65;4.45;;;;;;;;;;5055601;28;20025;-49
2022/05/22 00:38:22;;;;;;;5.90;3.75;;;;;;;;;;5055464;28;20079;-49
2022/05/22 00:40:50;;;;;;;11.18;4.22;;;;;;;;;;5055466;28;20021;-49
2022/05/22 00:43:33;;;;;;;19.48;15.02;;;;;;;;;;5055486;28;20039;-50
2022/05/22 00:46:02;;;;;;;15.48;13.65;;;;;;;;;;5055209;28;20060;-48
2022/05/22 00:48:29;;;;;;;10.82;8.95;;;;;;;;;;5054284;28;20039;-50
2022/05/22 00:50:57;;;;;;;8.02;5.70;;;;;;;;;;5055013;28;20052;-50
2022/05/22 00:53:24;;;;;;;5.63;4.47;;;;;;;;;;5055192;28;20112;-50
2022/05/22 00:55:50;;;;;;;8.55;4.50;;;;;;;;;;5055145;28;20103;-49
2022/05/22 00:58:19;;;;;;;9.43;4.40;;;;;;;;;;5055199;28;20028;-48
2022/05/22 01:00:46;;;;;;;7.82;4.43;;;;;;;;;;5055036;28;20025;-48
2022/05/22 01:03:27;;;;;;;8.80;4.05;;;;;;;;;;5055296;28;20028;-48
2022/05/22 01:05:53;;;;;;;9.48;4.20;;;;;;;;;;5055297;28;20432;-48
2022/05/22 01:08:20;;;;;;;15.68;12.23;;;;;;;;;;5054802;28;20048;-47
2022/05/22 01:10:47;;;;;;;18.58;16.35;;;;;;;;;;5054684;28;20048;-48
2022/05/22 01:13:14;;;;;;;16.10;12.98;;;;;;;;;;5054757;28;20108;-49
2022/05/22 01:15:40;;;;;;;10.75;5.63;;;;;;;;;;5054857;28;20040;-48
2022/05/22 01:18:06;;;;;;;9.00;4.90;;;;;;;;;;5054774;28;20025;-48
2022/05/22 01:20:33;;;;;;;7.07;3.90;;;;;;;;;;5054643;28;20154;-48
2022/05/22 01:22:59;;;;;;;6.57;4.10;;;;;;;;;;5054992;28;20024;-49
2022/05/22 01:25:25;;;;;;;10.00;5.05;;;;;;;;;;5054670;28;20021;-49
2022/05/22 01:27:51;;;;;;;7.47;4.28;;;;;;;;;;5054539;28;20107;-48
2022/05/22 01:30:20;;;;;;;6.40;4.50;;;;;;;;;;5054433;28;20470;-49
2022/05/22 01:32:49;;;;;;;5.72;4.10;;;;;;;;;;5054666;28;20492;-49
2022/05/22 01:35:18;;;;;;;6.68;4.15;;;;;;;;;;5054542;28;20037;-49
2022/05/22 01:37:45;;;;;;;7.47;4.90;;;;;;;;;;5054504;28;20021;-50
2022/05/22 01:40:14;;;;;;;5.63;3.85;;;;;;;;;;5036846;28;20108;-50
2022/05/22 01:42:40;;;;;;;8.43;4.10;;;;;;;;;;5054362;28;20032;-49
2022/05/22 01:45:07;;;;;;;9.52;4.40;;;;;;;;;;5054253;28;20021;-48
2022/05/22 01:47:34;;;;;;;6.35;4.65;;;;;;;;;;5054235;28;20484;-48
2022/05/22 01:50:00;;;;;;;9.93;5.63;;;;;;;;;;5054058;28;20029;-48
2022/05/22 01:52:28;;;;;;;5.45;4.57;;;;;;;;;;5054569;28;20052;-48
2022/05/22 01:54:54;;;;;;;6.93;4.20;;;;;;;;;;5054021;28;20021;-50
2022/05/22 01:57:20;;;;;;;5.32;3.80;;;;;;;;;;5053886;28;20063;-49
2022/05/22 01:59:47;;;;;;;8.65;4.28;;;;;;;;;;5053643;28;20032;-48
2022/05/22 02:02:13;;;;;;;8.27;3.75;;;;;;;;;;5054184;28;20496;-48
2022/05/22 02:04:39;;;;;;;7.45;3.97;;;;;;;;;;5053834;28;20017;-49
2022/05/22 02:09:50;;;;;;;5.45;3.75;;;;;;;;;;5053724;28;20036;-48
2022/05/22 02:12:16;;;;;;;7.70;3.50;;;;;;;;;;5053806;28;20049;-49
2022/05/22 02:14:42;;;;;;;4.45;3.67;;;;;;;;;;5053741;28;20119;-49
2022/05/22 02:17:11;;;;;;;8.27;3.80;;;;;;;;;;5053737;28;20108;-49
2022/05/22 02:19:37;;;;;;;5.22;3.70;;;;;;;;;;5053680;28;20499;-48
2022/05/22 02:22:03;;;;;;;6.45;3.58;;;;;;;;;;5053565;28;20419;-47
2022/05/22 02:24:29;;;;;;;10.80;4.25;;;;;;;;;;5053520;28;20032;-49
2022/05/22 02:26:56;;;;;;;5.43;3.50;;;;;;;;;;5053600;28;20543;-48
2022/05/22 02:29:22;;;;;;;5.05;4.15;;;;;;;;;;5053798;28;20025;-48
2022/05/22 02:31:48;;;;;;;8.23;4.18;;;;;;;;;;5053517;28;20401;-48
2022/05/22 02:34:14;;;;;;;7.10;3.50;;;;;;;;;;5053729;28;20021;-47
2022/05/22 02:36:40;;;;;;;10.50;4.10;;;;;;;;;;5053694;28;20573;-47
2022/05/22 02:39:06;;;;;;;9.23;3.97;;;;;;;;;;5053321;28;20017;-48
2022/05/22 02:41:32;;;;;;;13.35;4.07;;;;;;;;;;5053185;28;20021;-47
2022/05/22 02:44:01;;;;;;;8.00;3.55;;;;;;;;;;5053144;28;20021;-47
2022/05/22 02:46:27;;;;;;;7.47;3.75;;;;;;;;;;5053344;28;20381;-47
2022/05/22 02:48:53;;;;;;;8.93;3.28;;;;;;;;;;5053403;28;20053;-48
2022/05/22 02:51:20;;;;;;;87.30;7.32;;;;;;;;;;5053131;28;20025;-48
2022/05/22 02:53:46;;;;;;;5.90;3.45;;;;;;;;;;5035325;28;20033;-48
2022/05/22 02:56:17;;;;;;;4.60;3.17;;;;;;;;;;5052982;28;20485;-47
2022/05/22 02:58:43;;;;;;;8.33;3.20;;;;;;;;;;5053169;28;20025;-50
2022/05/22 03:01:09;;;;;;;4.15;3.17;;;;;;;;;;5053400;28;20021;-48
2022/05/22 03:03:35;;;;;;;9.63;3.55;;;;;;;;;;5053225;28;20429;-48
2022/05/22 03:08:49;;;;;;;10.48;3.58;;;;;;;;;;5053270;28;20040;-47
2022/05/22 03:11:15;;;;;;;10.30;3.20;;;;;;;;;;5035009;28;20049;-47
2022/05/22 03:13:43;;;;;;;4.80;3.00;;;;;;;;;;5056557;28;20057;-47
2022/05/22 03:16:09;;;;;;;5.38;3.22;;;;;;;;;;5057322;28;20040;-48
2022/05/22 03:18:35;;;;;;;5.07;2.97;;;;;;;;;;5057068;28;20492;-47
2022/05/22 03:21:01;;;;;;;6.25;3.45;;;;;;;;;;5057021;28;20052;-48
2022/05/22 03:23:30;;;;;;;4.28;3.30;;;;;;;;;;5056833;28;20029;-49
2022/05/22 03:25:56;;;;;;;26.80;4.20;;;;;;;;;;5057031;28;20083;-48
2022/05/22 03:28:23;;;;;;;5.90;3.15;;;;;;;;;;5056920;28;20099;-51
2022/05/22 03:30:50;;;;;;;6.22;3.10;;;;;;;;;;5057034;28;20029;-48
2022/05/22 03:33:16;;;;;;;4.28;3.28;;;;;;;;;;5056827;28;20025;-46
2022/05/22 03:35:42;;;;;;;14.77;7.85;;;;;;;;;;5056834;28;20033;-49
2022/05/22 03:38:09;;;;;;;38.55;24.38;;;;;;;;;;5056822;28;20102;-48
2022/05/22 03:40:45;;;;;;;24.23;16.85;;;;;;;;;;5056436;28;20029;-46
2022/05/22 03:43:12;;;;;;;12.00;8.00;;;;;;;;;;5056662;28;20021;-49
2022/05/22 03:45:38;;;;;;;9.20;4.43;;;;;;;;;;5056523;28;20165;-48
2022/05/22 03:48:04;;;;;;;7.75;4.18;;;;;;;;;;5056631;28;20102;-48
2022/05/22 03:50:30;;;;;;;5.80;3.40;;;;;;;;;;5056361;28;20070;-49
2022/05/22 03:52:59;;;;;;;8.05;3.00;;;;;;;;;;5056308;28;20036;-48
2022/05/22 03:55:25;;;;;;;4.35;2.97;;;;;;;;;;5056365;28;20048;-49
2022/05/22 03:57:51;;;;;;;5.43;3.53;;;;;;;;;;5056444;28;20036;-49
2022/05/22 04:00:18;;;;;;;20.40;12.20;;;;;;;;;;5056358;28;20104;-48
2022/05/22 04:02:45;;;;;;;41.80;25.98;;;;;;;;;;5056352;28;20037;-48
2022/05/22 04:05:11;;;;;;;23.50;13.65;;;;;;;;;;5056268;28;20056;-48
2022/05/22 04:07:38;;;;;;;27.40;18.48;;;;;;;;;;5056001;28;20419;-48
2022/05/22 04:10:07;;;;;;;35.60;18.00;;;;;;;;;;5055937;28;20082;-47
2022/05/22 04:12:36;;;;;;;20.88;11.82;;;;;;;;;;5056370;28;20389;-47
2022/05/22 04:15:04;;;;;;;15.35;10.18;;;;;;;;;;5056130;28;20021;-49
2022/05/22 04:17:30;;;;;;;9.85;6.13;;;;;;;;;;5056065;28;20083;-47
2022/05/22 04:19:56;;;;;;;9.13;5.65;;;;;;;;;;5056089;28;20035;-47
2022/05/22 04:22:22;;;;;;;9.02;5.28;;;;;;;;;;5055820;28;20427;-47
2022/05/22 04:27:37;;;;;;;8.60;4.78;;;;;;;;;;5056019;28;20032;-47
2022/05/22 04:30:03;;;;;;;7.07;3.70;;;;;;;;;;5055767;28;20480;-49
2022/05/22 04:32:29;;;;;;;7.60;3.60;;;;;;;;;;5055981;28;20057;-47
2022/05/22 04:34:55;;;;;;;11.10;7.55;;;;;;;;;;5055695;28;20082;-47
2022/05/22 04:37:21;;;;;;;8.55;5.22;;;;;;;;;;5055644;28;20397;-50
2022/05/22 04:39:47;;;;;;;14.45;5.55;;;;;;;;;;5055610;28;20033;-47
2022/05/22 04:42:13;;;;;;;7.60;4.25;;;;;;;;;;5055658;28;20029;-47
2022/05/22 04:44:39;;;;;;;4.43;3.83;;;;;;;;;;5055789;28;20488;-49
2022/05/22 04:47:05;;;;;;;10.85;3.92;;;;;;;;;;5055685;28;20457;-47
2022/05/22 04:49:31;;;;;;;3.75;2.75;;;;;;;;;;5055375;28;20025;-48
2022/05/22 04:51:58;;;;;;;5.85;2.70;;;;;;;;;;5055640;28;20031;-47
2022/05/22 04:54:25;;;;;;;3.70;3.13;;;;;;;;;;5055433;28;20025;-50
2022/05/22 04:56:55;;;;;;;11.38;5.03;;;;;;;;;;5055153;28;20068;-47
2022/05/22 04:59:22;;;;;;;12.32;2.80;;;;;;;;;;5055475;28;20104;-48
2022/05/22 05:01:48;;;;;;;10.23;6.00;;;;;;;;;;5055571;28;20461;-47
2022/05/22 05:04:14;;;;;;;4.10;2.83;;;;;;;;;;5055054;28;20044;-48
2022/05/22 05:06:40;;;;;;;4.75;2.58;;;;;;;;;;5055092;28;20477;-47
2022/05/22 05:09:06;;;;;;;5.80;3.22;;;;;;;;;;5055330;28;20033;-47
2022/05/22 05:11:32;;;;;;;5.03;2.58;;;;;;;;;;5054937;28;20053;-47
2022/05/22 05:13:58;;;;;;;4.63;2.78;;;;;;;;;;5055139;28;20142;-48
2022/05/22 05:16:27;;;;;;;4.30;2.83;;;;;;;;;;5055014;28;20111;-48
2022/05/22 05:18:53;;;;;;;5.57;2.78;;;;;;;;;;5055007;28;20050;-46
2022/05/22 05:21:19;;;;;;;5.03;2.90;;;;;;;;;;5055070;28;20037;-48
2022/05/22 05:23:45;;;;;;;10.45;2.70;;;;;;;;;;5054643;28;20113;-49
2022/05/22 05:26:11;;;;;;;4.20;2.50;;;;;;;;;;5054862;28;20033;-48
2022/05/22 05:28:37;;;;;;;5.40;2.58;;;;;;;;;;5054616;28;20029;-47
2022/05/22 05:31:03;;;;;;;4.85;2.25;;;;;;;;;;5054539;28;20029;-48
2022/05/22 05:33:32;;;;;;;5.85;2.70;;;;;;;;;;5054599;28;20025;-48
2022/05/22 05:35:58;;;;;;;2.50;2.30;;;;;;;;;;5053613;28;20075;-48
2022/05/22 05:38:24;;;;;;;3.17;2.42;;;;;;;;;;5054370;28;20020;-48
2022/05/22 05:40:50;;;;;;;5.68;2.00;;;;;;;;;;5054462;28;20033;-49
2022/05/22 05:43:16;;;;;;;6.28;2.50;;;;;;;;;;5054388;28;20469;-48
2022/05/22 05:45:43;;;;;;;6.00;2.15;;;;;;;;;;5054352;28;20469;-47
2022/05/22 05:48:09;;;;;;;5.00;2.25;;;;;;;;;;5054245;28;20385;-48
2022/05/22 05:50:36;;;;;;;4.97;2.20;;;;;;;;;;5054132;28;20024;-48
2022/05/22 05:53:02;;;;;;;18.80;3.22;;;;;;;;;;5054123;28;20028;-48
2022/05/22 05:55:29;;;;;;;3.28;2.25;;;;;;;;;;5053929;28;20017;-49
2022/05/22 05:57:56;;;;;;;5.57;2.22;;;;;;;;;;5054029;28;20400;-47
2022/05/22 06:00:26;;;;;;;5.32;2.72;;;;;;;;;;5054054;28;20024;-48
2022/05/22 06:02:52;;;;;;;6.60;2.45;;;;;;;;;;5054083;28;20025;-47
2022/05/22 06:05:19;;;;;;;5.57;2.50;;;;;;;;;;5053867;28;20021;-47
2022/05/22 06:07:48;;;;;;;5.10;2.67;;;;;;;;;;5054371;28;20055;-47
2022/05/22 06:10:14;;;;;;;4.38;2.38;;;;;;;;;;5053613;28;20068;-47
2022/05/22 06:12:40;;;;;;;5.43;2.50;;;;;;;;;;5053742;28;20047;-50
2022/05/22 06:15:07;;;;;;;10.05;7.82;;;;;;;;;;5054102;28;20025;-49
2022/05/22 06:17:37;;;;;;;10.15;3.38;;;;;;;;;;5053632;28;20469;-49
2022/05/22 06:20:06;;;;;;;2.33;1.88;;;;;;;;;;5053585;28;20089;-50
2022/05/22 06:22:34;;;;;;;4.68;2.80;;;;;;;;;;5053759;28;20033;-48
2022/05/22 06:25:00;;;;;;;2.55;1.70;;;;;;;;;;5053626;28;20021;-47
2022/05/22 06:27:26;;;;;;;3.38;1.63;;;;;;;;;;5053557;28;20021;-48
2022/05/22 06:29:52;;;;;;;4.43;1.75;;;;;;;;;;5053559;28;20063;-47
2022/05/22 06:32:19;;;;;;;3.95;1.80;;;;;;;;;;5053701;28;20028;-47
2022/05/22 06:34:47;;;;;;;4.68;2.03;;;;;;;;;;5053458;28;20043;-47
2022/05/22 06:37:15;;;;;;;6.47;3.92;;;;;;;;;;5053494;28;20041;-48
2022/05/22 06:39:50;;;;;;;5.20;3.78;;;;;;;;;;5053770;28;20134;-47
2022/05/22 06:42:37;;;;;;;10.93;3.00;;;;;;;;;;5053293;28;20045;-47
2022/05/22 06:45:11;;;;;;;8.07;2.15;;;;;;;;;;5053047;28;20413;-47
2022/05/22 06:47:38;;;;;;;4.88;2.20;;;;;;;;;;5053172;28;20029;-47
2022/05/22 06:50:05;;;;;;;3.63;2.10;;;;;;;;;;5053126;28;20037;-50
2022/05/22 06:52:32;;;;;;;5.20;2.08;;;;;;;;;;5053289;28;20033;-46
2022/05/22 06:55:04;;;;;;;11.38;3.22;;;;;;;;;;5052999;28;20028;-49
2022/05/22 06:57:30;;;;;;;10.32;8.15;;;;;;;;;;5052966;28;20497;-49
2022/05/22 06:59:57;;;;;;;13.73;8.73;;;;;;;;;;5052942;28;20028;-48
2022/05/22 07:02:25;;;;;;;41.40;27.05;;;;;;;;;;5053041;28;20082;-48
2022/05/22 07:04:51;;;;;;;34.78;25.55;;;;;;;;;;5052898;28;20108;-48
2022/05/22 07:07:17;;;;;;;16.55;10.43;;;;;;;;;;5053273;28;20112;-49
2022/05/22 07:09:43;;;;;;;15.43;11.55;;;;;;;;;;5053371;28;20028;-48
2022/05/22 07:12:10;;;;;;;25.83;17.15;;;;;;;;;;5052784;28;20045;-48
2022/05/22 07:14:36;;;;;;;19.25;11.38;;;;;;;;;;5052879;28;20049;-50
2022/05/22 07:17:04;;;;;;;39.08;25.52;;;;;;;;;;5053146;28;20049;-49
2022/05/22 07:19:37;;;;;;;53.35;37.55;;;;;;;;;;5053273;28;20035;-49
2022/05/22 07:22:04;;;;;;;17.70;10.60;;;;;;;;;;5053075;28;20104;-52
2022/05/22 07:24:30;;;;;;;5.82;4.80;;;;;;;;;;5053078;28;20493;-46
2022/05/22 07:27:03;;;;;;;22.52;11.05;;;;;;;;;;5052712;28;20029;-51
2022/05/22 07:29:30;;;;;;;43.42;28.63;;;;;;;;;;5034951;28;20056;-46
2022/05/22 07:31:57;;;;;;;85.07;51.75;;;;;;;;;;5052917;28;20029;-49
2022/05/22 07:34:24;;;;;;;13.75;9.52;;;;;;;;;;5052948;28;20423;-49
2022/05/22 07:36:57;;;;;;;26.75;13.45;;;;;;;;;;5052491;28;20045;-49
2022/05/22 07:39:24;;;;;;;12.15;5.20;;;;;;;;;;5052741;28;20507;-50
2022/05/22 07:41:50;;;;;;;13.48;6.03;;;;;;;;;;5052784;28;20104;-50
2022/05/22 07:44:19;;;;;;;10.05;5.88;;;;;;;;;;5052691;28;20037;-50
2022/05/22 07:46:45;;;;;;;11.10;5.97;;;;;;;;;;5052845;28;20036;-50
2022/05/22 07:50:16;;;;;;;9.80;2.85;;;;;;;;;;5052504;28;20112;-50
2022/05/22 07:51:58;;;;;;;5.35;1.50;;;;;;;;;;5052507;28;20033;-50
2022/05/22 07:54:26;;;;;;;3.22;1.70;;;;;;;;;;5052329;28;20104;-49
2022/05/22 07:56:52;;;;;;;2.67;1.80;;;;;;;;;;5052013;28;20029;-49
2022/05/22 07:59:18;;;;;;;4.55;1.10;;;;;;;;;;5054431;28;20481;-49
2022/05/22 08:01:45;;;;;;;1.98;0.90;;;;;;;;;;5055737;28;20032;-49
2022/05/22 08:04:11;;;;;;;4.70;1.23;;;;;;;;;;5054854;28;20025;-49
2022/05/22 08:06:37;;;;;;;2.92;0.98;;;;;;;;;;5055680;28;20045;-49
2022/05/22 08:09:03;;;;;;;5.53;1.80;;;;;;;;;;5055622;28;20032;-49
2022/05/22 08:11:29;;;;;;;4.50;1.30;;;;;;;;;;5055096;28;20055;-49
2022/05/22 08:13:55;;;;;;;7.97;1.40;;;;;;;;;;5055683;28;20021;-49
2022/05/22 08:16:21;;;;;;;3.90;1.00;;;;;;;;;;5055180;28;20491;-49
2022/05/22 08:18:48;;;;;;;5.65;1.52;;;;;;;;;;5055240;28;20477;-49
2022/05/22 08:21:17;;;;;;;3.20;1.73;;;;;;;;;;5032928;28;21099;-46
2022/05/22 08:23:45;;;;;;;6.18;1.33;;;;;;;;;;5025299;28;20171;-48
2022/05/22 08:26:11;;;;;;;7.70;1.38;;;;;;;;;;5024825;28;20025;-48
2022/05/22 08:28:39;;;;;;;34.22;3.72;;;;;;;;;;5024987;28;20553;-49
2022/05/22 08:31:06;;;;;;;2.20;1.20;;;;;;;;;;5024718;28;20030;-46
2022/05/22 08:33:32;;;;;;;1.85;1.20;;;;;;;;;;5024852;28;20036;-47
2022/05/22 08:35:58;;;;;;;1.98;0.93;;;;;;;;;;5025056;28;20032;-48
2022/05/22 08:38:26;;;;;;;2.75;1.40;;;;;;;;;;5024873;28;20051;-46
2022/05/22 08:40:58;;;;;;;5.43;1.70;;;;;;;;;;5024682;28;20098;-46
2022/05/22 08:43:35;;;;;;;2.70;1.25;;;;;;;;;;5025405;28;20033;-46
2022/05/22 08:46:08;;;;;;;5.47;1.52;;;;;;;;;;5024943;28;20029;-46
2022/05/22 08:48:39;;;;;;;4.30;1.67;;;;;;;;;;5024969;28;20354;-47
2022/05/22 08:51:09;;;;;;;4.30;2.33;;;;;;;;;;5024548;28;20485;-47
2022/05/22 08:53:37;;;;;;;5.63;2.50;;;;;;;;;;5025101;28;20056;-47
2022/05/22 08:58:56;;;;;;;7.88;2.20;;;;;;;;;;5024578;28;20456;-47
2022/05/22 09:01:48;;;;;;;8.20;2.70;;;;;;;;;;5024721;28;20020;-47
2022/05/22 09:04:35;;;;;;;8.35;1.80;;;;;;;;;;4965216;28;20040;-47
2022/05/22 09:07:20;;;;;;;6.25;1.30;;;;;;;;;;4965063;28;20196;-47
2022/05/22 09:10:06;;;;;;;5.85;1.40;;;;;;;;;;4963987;28;20042;-47
2022/05/22 09:12:32;;;;;;;3.92;1.33;;;;;;;;;;4964888;28;20054;-46
2022/05/22 09:15:14;;;;;;;3.40;1.85;;;;;;;;;;4965010;28;20729;-48
2022/05/22 09:17:43;;;;;;;6.15;4.03;;;;;;;;;;4964932;28;20201;-48
2022/05/22 09:20:17;;;;;;;4.03;2.33;;;;;;;;;;4964836;28;20637;-46
2022/05/22 09:23:01;;;;;;;6.80;2.47;;;;;;;;;;4964449;28;20474;-46
2022/05/22 09:25:33;;;;;;;4.93;2.55;;;;;;;;;;4964949;28;20124;-46
2022/05/22 09:28:25;;;;;;;12.40;7.30;;;;;;;;;;4965067;28;20026;-45
2022/05/22 09:31:10;;;;;;;13.02;6.97;;;;;;;;;;4960027;28;20072;-45
2022/05/22 09:33:55;;;;;;;3.75;3.03;;;;;;;;;;4964545;28;20462;-44
2022/05/22 09:36:24;;;;;;;6.70;4.32;;;;;;;;;;4964714;28;20030;-44
2022/05/22 09:38:59;;;;;;;10.43;4.18;;;;;;;;;;4964848;28;20440;-45
2022/05/22 09:41:32;;;;;;;8.68;4.50;;;;;;;;;;5000186;28;20104;-46
2022/05/22 09:44:16;;;;;;;6.55;2.03;;;;;;;;;;5023944;28;20040;-45
2022/05/22 09:46:57;;;;;;;3.72;2.55;;;;;;;;;;5023890;28;20427;-47
2022/05/22 09:49:37;;;;;;;7.88;3.95;;;;;;;;;;5074247;28;20024;-44
2022/05/22 09:52:03;;;;;;;15.80;4.60;;;;;;;;;;5074056;28;20027;-44
2022/05/22 09:54:29;;;;;;;21.05;6.28;;;;;;;;;;5074222;28;20028;-47
2022/05/22 09:56:58;;;;;;;8.13;2.97;;;;;;;;;;5074141;28;20079;-47
2022/05/22 09:59:30;;;;;;;17.10;7.72;;;;;;;;;;5074403;28;20043;-44
2022/05/22 10:02:00;;;;;;;7.72;2.70;;;;;;;;;;5074698;28;20032;-44
2022/05/22 10:04:33;;;;;;;4.38;2.35;;;;;;;;;;5073989;28;20081;-43
2022/05/22 10:07:06;;;;;;;7.95;2.40;;;;;;;;;;5073828;28;20485;-44
2022/05/22 10:09:51;;;;;;;5.28;2.28;;;;;;;;;;5074085;28;20037;-44
2022/05/22 10:12:26;;;;;;;6.22;3.70;;;;;;;;;;5073851;28;20051;-48
2022/05/22 10:15:01;;;;;;;6.13;1.88;;;;;;;;;;5073770;28;20480;-44
2022/05/22 10:17:48;;;;;;;4.82;1.70;;;;;;;;;;5073818;28;20081;-48
2022/05/22 10:20:32;;;;;;;5.00;2.80;;;;;;;;;;5073518;28;20036;-44
2022/05/22 10:23:21;;;;;;;5.38;1.95;;;;;;;;;;5073690;28;20040;-47
2022/05/22 10:25:50;;;;;;;6.10;2.88;;;;;;;;;;5073746;28;20433;-44
2022/05/22 10:28:18;;;;;;;2.95;1.38;;;;;;;;;;5073481;28;20021;-44
2022/05/22 10:30:50;;;;;;;5.10;1.58;;;;;;;;;;5073729;28;20483;-45
2022/05/22 10:33:33;;;;;;;4.75;3.80;;;;;;;;;;5073635;28;20112;-44
2022/05/22 10:36:04;;;;;;;6.82;1.77;;;;;;;;;;5073798;28;20035;-44
2022/05/22 10:38:42;;;;;;;9.30;3.92;;;;;;;;;;5073363;28;20033;-44
2022/05/22 10:44:28;;;;;;;11.00;6.18;;;;;;;;;;4973022;28;20033;-43
2022/05/22 10:46:57;;;;;;;4.68;3.65;;;;;;;;;;4972676;28;20038;-44
2022/05/22 10:49:34;;;;;;;4.13;2.80;;;;;;;;;;4972629;28;20027;-43
2022/05/22 10:52:02;;;;;;;8.27;5.63;;;;;;;;;;4972626;28;20118;-43
2022/05/22 10:54:35;;;;;;;4.15;2.22;;;;;;;;;;4972561;28;20038;-43
2022/05/22 10:57:08;;;;;;;4.07;2.15;;;;;;;;;;4972541;28;20053;-45
2022/05/22 10:59:34;;;;;;;3.47;2.60;;;;;;;;;;4972535;28;20041;-44
2022/05/22 11:02:03;;;;;;;4.70;2.08;;;;;;;;;;4972545;28;20554;-44
2022/05/22 11:04:40;;;;;;;6.35;2.55;;;;;;;;;;4972632;28;20053;-44
2022/05/22 11:07:07;;;;;;;2.95;1.88;;;;;;;;;;4972506;28;20101;-44
2022/05/22 11:09:34;;;;;;;7.40;1.35;;;;;;;;;;4972380;28;20023;-43
2022/05/22 11:12:05;;;;;;;6.65;3.22;;;;;;;;;;4972100;28;20070;-44
2022/05/22 11:14:33;;;;;;;3.90;2.25;;;;;;;;;;4972565;28;20042;-43
2022/05/22 11:17:11;;;;;;;5.20;2.47;;;;;;;;;;4972273;28;20411;-46
2022/05/22 11:19:40;;;;;;;3.13;1.92;;;;;;;;;;5021231;28;20090;-44
2022/05/22 11:22:19;;;;;;;7.15;2.88;;;;;;;;;;5073534;28;20358;-43
2022/05/22 11:25:04;;;;;;;2.30;1.50;;;;;;;;;;5072930;28;20025;-44
2022/05/22 11:27:42;;;;;;;5.28;1.67;;;;;;;;;;5072921;28;20024;-47
2022/05/22 11:30:16;;;;;;;9.15;4.68;;;;;;;;;;5072916;28;20487;-45
2022/05/22 11:32:50;;;;;;;6.75;2.90;;;;;;;;;;5073029;28;20086;-46
2022/05/22 11:35:35;;;;;;;8.73;2.80;;;;;;;;;;5076759;28;20017;-47
2022/05/22 11:38:19;;;;;;;7.25;1.63;;;;;;;;;;5076720;28;20044;-43
2022/05/22 11:40:49;;;;;;;5.95;2.25;;;;;;;;;;5076757;28;20052;-43
2022/05/22 11:43:24;;;;;;;5.90;2.33;;;;;;;;;;5076958;28;20373;-44
2022/05/22 11:46:12;;;;;;;2.88;1.98;;;;;;;;;;5076514;28;20024;-46
2022/05/22 11:48:47;;;;;;;3.80;2.95;;;;;;;;;;5076847;28;20029;-43
2022/05/22 11:51:25;;;;;;;9.75;4.75;;;;;;;;;;5076798;28;20473;-44
2022/05/22 11:54:00;;;;;;;18.20;8.90;;;;;;;;;;5076569;28;20495;-43
2022/05/22 11:56:30;;;;;;;11.85;4.85;;;;;;;;;;5076240;28;20527;-43
2022/05/22 11:59:18;;;;;;;11.02;6.10;;;;;;;;;;5076354;28;20048;-44
2022/05/22 12:01:56;;;;;;;7.70;4.35;;;;;;;;;;5076294;28;20016;-44
2022/05/22 12:04:25;;;;;;;8.82;3.00;;;;;;;;;;5076387;28;20053;-44
2022/05/22 12:07:07;;;;;;;8.38;3.67;;;;;;;;;;5076441;28;20457;-43
2022/05/22 12:09:33;;;;;;;8.88;3.22;;;;;;;;;;5076198;28;20024;-46
2022/05/22 12:12:02;;;;;;;6.10;2.75;;;;;;;;;;5075909;28;20041;-47
2022/05/22 12:14:37;;;;;;;9.02;4.13;;;;;;;;;;5076053;28;20060;-44
2022/05/22 12:17:06;;;;;;;6.95;3.47;;;;;;;;;;5075894;28;20036;-45
2022/05/22 12:19:47;;;;;;;10.20;3.10;;;;;;;;;;5076009;28;20035;-44
2022/05/22 12:22:20;;;;;;;6.03;3.63;;;;;;;;;;5075929;28;20149;-44
2022/05/22 12:24:52;;;;;;;4.47;1.98;;;;;;;;;;5076173;28;20024;-43
2022/05/22 12:27:22;;;;;;;7.57;4.35;;;;;;;;;;5075842;28;20017;-43
2022/05/22 12:30:09;;;;;;;5.35;2.88;;;;;;;;;;5075826;28;20384;-43
2022/05/22 12:32:40;;;;;;;10.77;3.85;;;;;;;;;;5075653;28;20020;-43
2022/05/22 12:35:07;;;;;;;4.72;2.28;;;;;;;;;;5076029;28;20024;-43
2022/05/22 12:37:36;;;;;;;6.57;4.07;;;;;;;;;;5075603;28;20392;-44
2022/05/22 12:40:16;;;;;;;7.35;2.30;;;;;;;;;;5075780;28;20096;-43
2022/05/22 12:42:45;;;;;;;3.17;2.53;;;;;;;;;;5075697;28;20045;-43
2022/05/22 12:45:14;;;;;;;2.70;1.50;;;;;;;;;;5075789;28;20074;-43
2022/05/22 12:47:47;;;;;;;3.95;2.67;;;;;;;;;;5075645;28;20153;-46
2022/05/22 12:50:25;;;;;;;3.08;1.60;;;;;;;;;;5075352;28;20050;-43
2022/05/22 12:52:52;;;;;;;2.67;1.52;;;;;;;;;;5075398;28;20086;-43
2022/05/22 12:55:20;;;;;;;5.00;1.52;;;;;;;;;;5075402;28;20472;-43
2022/05/22 12:57:53;;;;;;;5.18;2.05;;;;;;;;;;5075334;28;20040;-43
2022/05/22 13:00:30;;;;;;;2.28;1.20;;;;;;;;;;5075335;28;20020;-44
2022/05/22 13:03:06;;;;;;;4.60;1.98;;;;;;;;;;5075179;28;20025;-44
2022/05/22 13:05:34;;;;;;;4.88;2.13;;;;;;;;;;5074984;28;20028;-43
2022/05/22 13:08:00;;;;;;;3.15;1.40;;;;;;;;;;5075072;28;20473;-44
2022/05/22 13:10:43;;;;;;;2.67;1.10;;;;;;;;;;5075037;28;20062;-43
2022/05/22 13:13:11;;;;;;;2.38;1.25;;;;;;;;;;5075540;28;20492;-45
2022/05/22 13:15:50;;;;;;;10.40;6.20;;;;;;;;;;5075400;28;20024;-43
2022/05/22 13:18:17;;;;;;;5.55;2.05;;;;;;;;;;5074999;28;20396;-44
2022/05/22 13:20:49;;;;;;;3.58;1.65;;;;;;;;;;5074947;28;20108;-42
2022/05/22 13:23:24;;;;;;;2.55;1.25;;;;;;;;;;5074986;28;20507;-43
2022/05/22 13:25:50;;;;;;;3.05;1.27;;;;;;;;;;5074816;28;20036;-43
2022/05/22 13:28:31;;;;;;;9.98;5.82;;;;;;;;;;5074606;28;20033;-42
2022/05/22 13:31:04;;;;;;;21.20;12.80;;;;;;;;;;5074860;28;20100;-42
2022/05/22 13:33:31;;;;;;;35.72;24.98;;;;;;;;;;5074627;28;20036;-43
2022/05/22 13:35:59;;;;;;;28.83;18.20;;;;;;;;;;5074700;28;20115;-42
2022/05/22 13:38:25;;;;;;;14.40;7.75;;;;;;;;;;5074797;28;20036;-43
2022/05/22 13:41:11;;;;;;;29.95;19.65;;;;;;;;;;5074451;28;20024;-44
2022/05/22 13:44:00;;;;;;;24.48;19.38;;;;;;;;;;4973746;28;20046;-43
2022/05/22 13:46:44;;;;;;;10.48;6.13;;;;;;;;;;4974069;28;20496;-43
2022/05/22 13:49:13;;;;;;;15.43;11.55;;;;;;;;;;4973540;28;20043;-43
2022/05/22 13:54:27;;;;;;;7.35;4.00;;;;;;;;;;4973492;28;20082;-42
2022/05/22 13:57:01;;;;;;;14.00;9.40;;;;;;;;;;4960315;28;21484;-44
2022/05/22 13:59:29;;;;;;;10.10;7.57;;;;;;;;;;4952660;28;20033;-43
2022/05/22 14:02:00;;;;;;;5.82;2.80;;;;;;;;;;4953655;28;20106;-44
2022/05/22 14:04:26;;;;;;;5.43;2.95;;;;;;;;;;4954126;28;20162;-44
2022/05/22 14:06:53;;;;;;;8.68;2.42;;;;;;;;;;4952884;29;20027;-43
2022/05/22 14:09:24;;;;;;;15.93;12.02;;;;;;;;;;4954012;29;20031;-44
2022/05/22 14:11:52;;;;;;;11.15;7.30;;;;;;;;;;4953455;29;20411;-43
2022/05/22 14:14:20;;;;;;;30.60;19.85;;;;;;;;;;4953129;29;20038;-43
2022/05/22 14:16:51;;;;;;;26.27;16.95;;;;;;;;;;4953217;28;20094;-43
2022/05/22 14:19:24;;;;;;;6.32;4.40;;;;;;;;;;4953162;28;20542;-43
2022/05/22 14:21:51;;;;;;;7.35;4.13;;;;;;;;;;5045039;28;20166;-44
2022/05/22 14:27:06;;;;;;;4.22;2.45;;;;;;;;;;5047521;28;20131;-42
2022/05/22 14:29:33;;;;;;;4.07;1.95;;;;;;;;;;5049920;28;20040;-47
2022/05/22 14:31:59;;;;;;;3.38;1.60;;;;;;;;;;5049807;28;20031;-46
2022/05/22 14:34:29;;;;;;;3.22;1.95;;;;;;;;;;5049649;28;20140;-42
2022/05/22 14:36:58;;;;;;;4.50;1.98;;;;;;;;;;5049430;28;20036;-47
2022/05/22 14:39:28;;;;;;;7.20;1.13;;;;;;;;;;5049542;28;20032;-43
2022/05/22 14:41:55;;;;;;;4.50;1.73;;;;;;;;;;5049671;28;20036;-46
2022/05/22 14:44:30;;;;;;;2.65;1.42;;;;;;;;;;5049470;28;20034;-46
2022/05/22 14:46:57;;;;;;;3.65;1.08;;;;;;;;;;5048260;28;20047;-44
2022/05/22 14:49:28;;;;;;;5.63;1.30;;;;;;;;;;5049476;28;20055;-45
2022/05/22 14:51:54;;;;;;;2.03;1.38;;;;;;;;;;5047411;28;20063;-46
2022/05/22 14:54:20;;;;;;;3.53;2.00;;;;;;;;;;5048513;28;20544;-45
2022/05/22 14:56:52;;;;;;;6.38;1.63;;;;;;;;;;5049455;28;20028;-42
2022/05/22 14:59:23;;;;;;;4.78;1.88;;;;;;;;;;5049299;28;21146;-43
2022/05/22 15:01:55;;;;;;;3.03;1.52;;;;;;;;;;5049203;28;20060;-43
2022/05/22 15:04:24;;;;;;;5.22;2.45;;;;;;;;;;5049418;28;20040;-43
2022/05/22 15:07:01;;;;;;;7.30;2.08;;;;;;;;;;5049359;28;20761;-42
2022/05/22 15:09:38;;;;;;;3.40;2.63;;;;;;;;;;5051969;28;20056;-45
2022/05/22 15:12:12;;;;;;;25.65;14.85;;;;;;;;;;5049120;28;20057;-45
2022/05/22 15:14:51;;;;;;;35.55;25.23;;;;;;;;;;5051874;28;20097;-42
2022/05/22 15:17:19;;;;;;;14.80;8.70;;;;;;;;;;5053401;28;20713;-43